sensor_id;sensor_type;location;lat;lon;timestamp;pressure;altitude;pressure_sealevel;temperature;humidity
56174;BME280;42058;52.308;20.924;2023-04-15T01:06:04;99878.90;;;10.56;100.00
56174;BME280;42058;52.308;20.924;2023-04-15T01:08:32;99877.64;;;10.52;100.00
56174;BME280;42058;52.308;20.924;2023-04-15T01:11:00;99877.01;;;10.50;100.00
56174;BME280;42058;52.308;20.924;2023-04-15T01:13:33;99874.64;;;10.48;100.00
56174;BME280;42058;52.308;20.924;2023-04-15T01:16:01;99871.73;;;10.45;100.00
56174;BME280;42058;52.308;20.924;2023-04-15T01:18:32;99874.10;;;10.43;100.00
56174;BME280;42058;52.308;20.924;2023-04-15T01:21:00;99873.30;;;10.41;100.00
56174;BME280;42058;52.308;20.924;2023-04-15T01:23:35;99872.88;;;10.37;100.00
56174;BME280;42058;52.308;20.924;2023-04-15T01:26:06;99874.56;;;10.35;100.00
56174;BME280;42058;52.308;20.924;2023-04-15T01:28:36;99874.61;;;10.33;100.00
56174;BME280;42058;52.308;20.924;2023-04-15T01:31:09;99874.17;;;10.30;100.00
56174;BME280;42058;52.308;20.924;2023-04-15T01:33:38;99878.94;;;10.29;100.00
56174;BME280;42058;52.308;20.924;2023-04-15T01:36:07;99876.72;;;10.27;100.00
56174;BME280;42058;52.308;20.924;2023-04-15T01:38:37;99880.11;;;10.25;100.00
56174;BME280;42058;52.308;20.924;2023-04-15T01:41:05;99873.37;;;10.23;100.00
56174;BME280;42058;52.308;20.924;2023-04-15T01:43:35;99877.31;;;10.20;100.00
56174;BME280;42058;52.308;20.924;2023-04-15T01:46:06;99877.18;;;10.18;100.00
56174;BME280;42058;52.308;20.924;2023-04-15T01:48:33;99875.54;;;10.15;100.00
56174;BME280;42058;52.308;20.924;2023-04-15T01:51:03;99874.95;;;10.12;100.00
56174;BME280;42058;52.308;20.924;2023-04-15T01:53:31;99876.23;;;10.10;100.00
56174;BME280;42058;52.308;20.924;2023-04-15T01:55:59;99876.30;;;10.08;100.00
56174;BME280;42058;52.308;20.924;2023-04-15T01:58:26;99878.30;;;10.07;100.00
56174;BME280;42058;52.308;20.924;2023-04-15T02:00:54;99877.81;;;10.05;100.00
56174;BME280;42058;52.308;20.924;2023-04-15T02:03:24;99877.35;;;10.03;100.00
56174;BME280;42058;52.308;20.924;2023-04-15T02:05:52;99883.39;;;10.00;100.00
56174;BME280;42058;52.308;20.924;2023-04-15T02:08:21;99882.05;;;9.99;100.00
56174;BME280;42058;52.308;20.924;2023-04-15T02:10:49;99876.71;;;9.96;100.00
56174;BME280;42058;52.308;20.924;2023-04-15T02:13:17;99882.38;;;9.94;100.00
56174;BME280;42058;52.308;20.924;2023-04-15T02:15:46;99876.12;;;9.92;100.00
56174;BME280;42058;52.308;20.924;2023-04-15T02:18:15;99876.91;;;9.90;100.00
56174;BME280;42058;52.308;20.924;2023-04-15T02:20:43;99872.40;;;9.88;100.00
56174;BME280;42058;52.308;20.924;2023-04-15T02:23:12;99876.48;;;9.87;100.00
56174;BME280;42058;52.308;20.924;2023-04-15T02:25:39;99872.70;;;9.85;100.00
56174;BME280;42058;52.308;20.924;2023-04-15T02:28:07;99872.89;;;9.84;100.00
56174;BME280;42058;52.308;20.924;2023-04-15T02:30:35;99874.52;;;9.82;100.00
56174;BME280;42058;52.308;20.924;2023-04-15T02:33:03;99874.23;;;9.80;100.00
56174;BME280;42058;52.308;20.924;2023-04-15T02:35:31;99872.67;;;9.79;100.00
56174;BME280;42058;52.308;20.924;2023-04-15T02:37:58;99872.56;;;9.77;100.00
56174;BME280;42058;52.308;20.924;2023-04-15T02:40:27;99873.83;;;9.76;100.00
56174;BME280;42058;52.308;20.924;2023-04-15T02:42:55;99868.45;;;9.75;100.00
56174;BME280;42058;52.308;20.924;2023-04-15T02:45:23;99872.51;;;9.74;100.00
56174;BME280;42058;52.308;20.924;2023-04-15T02:47:55;99873.95;;;9.72;100.00
56174;BME280;42058;52.308;20.924;2023-04-15T02:50:23;99873.50;;;9.70;100.00
56174;BME280;42058;52.308;20.924;2023-04-15T02:52:52;99870.90;;;9.70;100.00
56174;BME280;42058;52.308;20.924;2023-04-15T02:55:19;99873.00;;;9.70;100.00
56174;BME280;42058;52.308;20.924;2023-04-15T02:57:47;99871.27;;;9.69;100.00
56174;BME280;42058;52.308;20.924;2023-04-15T03:00:15;99869.02;;;9.68;100.00
56174;BME280;42058;52.308;20.924;2023-04-15T03:02:45;99868.66;;;9.68;100.00
56174;BME280;42058;52.308;20.924;2023-04-15T03:05:13;99871.33;;;9.67;100.00
56174;BME280;42058;52.308;20.924;2023-04-15T03:07:50;99873.64;;;9.66;100.00
56174;BME280;42058;52.308;20.924;2023-04-15T03:10:18;99874.36;;;9.66;100.00
56174;BME280;42058;52.308;20.924;2023-04-15T03:12:47;99874.36;;;9.65;100.00
56174;BME280;42058;52.308;20.924;2023-04-15T03:15:19;99874.59;;;9.64;100.00
56174;BME280;42058;52.308;20.924;2023-04-15T03:17:50;99876.34;;;9.63;100.00
56174;BME280;42058;52.308;20.924;2023-04-15T03:20:18;99876.19;;;9.62;100.00
56174;BME280;42058;52.308;20.924;2023-04-15T03:22:47;99876.90;;;9.62;100.00
56174;BME280;42058;52.308;20.924;2023-04-15T03:25:15;99873.60;;;9.62;100.00
56174;BME280;42058;52.308;20.924;2023-04-15T03:27:42;99871.50;;;9.61;100.00
56174;BME280;42058;52.308;20.924;2023-04-15T03:30:11;99873.98;;;9.60;100.00
56174;BME280;42058;52.308;20.924;2023-04-15T03:32:40;99872.92;;;9.60;100.00
56174;BME280;42058;52.308;20.924;2023-04-15T03:35:08;99875.76;;;9.59;100.00
56174;BME280;42058;52.308;20.924;2023-04-15T03:37:36;99877.52;;;9.59;100.00
56174;BME280;42058;52.308;20.924;2023-04-15T03:40:04;99877.71;;;9.59;100.00
56174;BME280;42058;52.308;20.924;2023-04-15T03:42:32;99878.62;;;9.58;100.00
56174;BME280;42058;52.308;20.924;2023-04-15T03:45:00;99877.90;;;9.58;100.00
56174;BME280;42058;52.308;20.924;2023-04-15T03:47:28;99882.67;;;9.57;100.00
56174;BME280;42058;52.308;20.924;2023-04-15T03:49:55;99880.58;;;9.57;100.00
56174;BME280;42058;52.308;20.924;2023-04-15T03:52:23;99880.92;;;9.57;100.00
56174;BME280;42058;52.308;20.924;2023-04-15T03:54:51;99880.23;;;9.56;100.00
56174;BME280;42058;52.308;20.924;2023-04-15T03:57:19;99887.60;;;9.56;100.00
56174;BME280;42058;52.308;20.924;2023-04-15T03:59:47;99884.48;;;9.55;100.00
56174;BME280;42058;52.308;20.924;2023-04-15T04:02:14;99886.59;;;9.55;100.00
56174;BME280;42058;52.308;20.924;2023-04-15T04:04:42;99886.60;;;9.54;100.00
56174;BME280;42058;52.308;20.924;2023-04-15T04:07:15;99888.36;;;9.55;100.00
56174;BME280;42058;52.308;20.924;2023-04-15T04:09:43;99887.48;;;9.54;100.00
56174;BME280;42058;52.308;20.924;2023-04-15T04:12:13;99885.90;;;9.54;100.00
56174;BME280;42058;52.308;20.924;2023-04-15T04:14:41;99885.05;;;9.54;100.00
56174;BME280;42058;52.308;20.924;2023-04-15T04:17:09;99884.92;;;9.53;100.00
56174;BME280;42058;52.308;20.924;2023-04-15T04:19:37;99887.55;;;9.52;100.00
56174;BME280;42058;52.308;20.924;2023-04-15T04:22:04;99888.44;;;9.52;100.00
56174;BME280;42058;52.308;20.924;2023-04-15T04:24:33;99887.94;;;9.51;100.00
56174;BME280;42058;52.308;20.924;2023-04-15T04:27:00;99883.05;;;9.50;100.00
56174;BME280;42058;52.308;20.924;2023-04-15T04:29:28;99885.33;;;9.51;100.00
56174;BME280;42058;52.308;20.924;2023-04-15T04:31:56;99886.57;;;9.50;100.00
